sensor_id;sensor_type;location;lat;lon;timestamp;temperature;humidity
68128;SHT30;54931;52.098;21.006;2023-12-22T00:00:44;5.85;74.63
68128;SHT30;54931;52.098;21.006;2023-12-22T00:03:34;5.79;74.68
68128;SHT30;54931;52.098;21.006;2023-12-22T00:06:02;5.76;74.48
68128;SHT30;54931;52.098;21.006;2023-12-22T00:08:30;5.74;74.39
68128;SHT30;54931;52.098;21.006;2023-12-22T00:10:58;5.72;74.31
68128;SHT30;54931;52.098;21.006;2023-12-22T00:13:26;5.67;74.43
68128;SHT30;54931;52.098;21.006;2023-12-22T00:15:54;5.66;74.23
68128;SHT30;54931;52.098;21.006;2023-12-22T00:18:21;5.68;74.35
68128;SHT30;54931;52.098;21.006;2023-12-22T00:20:49;5.67;74.53
68128;SHT30;54931;52.098;21.006;2023-12-22T00:23:17;5.61;75.21
68128;SHT30;54931;52.098;21.006;2023-12-22T00:25:44;5.53;75.51
68128;SHT30;54931;52.098;21.006;2023-12-22T00:28:12;5.52;76.04
68128;SHT30;54931;52.098;21.006;2023-12-22T00:30:39;5.50;76.64
68128;SHT30;54931;52.098;21.006;2023-12-22T00:33:07;5.51;77.01
68128;SHT30;54931;52.098;21.006;2023-12-22T00:35:35;5.47;77.38
68128;SHT30;54931;52.098;21.006;2023-12-22T00:38:03;5.40;77.23
68128;SHT30;54931;52.098;21.006;2023-12-22T00:40:31;5.38;76.93
68128;SHT30;54931;52.098;21.006;2023-12-22T00:42:59;5.35;76.99
68128;SHT30;54931;52.098;21.006;2023-12-22T00:45:26;5.32;77.02
68128;SHT30;54931;52.098;21.006;2023-12-22T00:47:54;5.27;77.12
68128;SHT30;54931;52.098;21.006;2023-12-22T00:50:22;5.20;77.26
68128;SHT30;54931;52.098;21.006;2023-12-22T00:52:49;5.18;77.11
68128;SHT30;54931;52.098;21.006;2023-12-22T00:55:17;5.13;77.11
68128;SHT30;54931;52.098;21.006;2023-12-22T00:57:45;5.12;76.62
68128;SHT30;54931;52.098;21.006;2023-12-22T01:00:13;5.10;76.76
68128;SHT30;54931;52.098;21.006;2023-12-22T01:02:41;5.05;76.62
68128;SHT30;54931;52.098;21.006;2023-12-22T01:05:09;4.97;76.72
68128;SHT30;54931;52.098;21.006;2023-12-22T01:07:38;4.91;76.31
68128;SHT30;54931;52.098;21.006;2023-12-22T01:10:06;4.87;76.23
68128;SHT30;54931;52.098;21.006;2023-12-22T01:12:36;4.85;75.39
68128;SHT30;54931;52.098;21.006;2023-12-22T01:15:04;4.87;75.22
68128;SHT30;54931;52.098;21.006;2023-12-22T01:17:35;4.85;75.02
68128;SHT30;54931;52.098;21.006;2023-12-22T01:20:03;4.82;74.90
68128;SHT30;54931;52.098;21.006;2023-12-22T01:22:32;4.79;74.88
68128;SHT30;54931;52.098;21.006;2023-12-22T01:25:01;4.75;74.55
68128;SHT30;54931;52.098;21.006;2023-12-22T01:27:30;4.76;74.07
68128;SHT30;54931;52.098;21.006;2023-12-22T01:29:58;4.79;74.06
68128;SHT30;54931;52.098;21.006;2023-12-22T01:32:26;4.75;74.16
68128;SHT30;54931;52.098;21.006;2023-12-22T01:35:00;4.73;74.03
68128;SHT30;54931;52.098;21.006;2023-12-22T01:37:31;4.72;73.91
68128;SHT30;54931;52.098;21.006;2023-12-22T01:39:59;4.68;74.12
68128;SHT30;54931;52.098;21.006;2023-12-22T01:42:27;4.65;73.90
68128;SHT30;54931;52.098;21.006;2023-12-22T01:44:54;4.67;73.81
68128;SHT30;54931;52.098;21.006;2023-12-22T01:47:22;4.65;73.93
68128;SHT30;54931;52.098;21.006;2023-12-22T01:49:50;4.68;73.50
68128;SHT30;54931;52.098;21.006;2023-12-22T01:52:19;4.67;73.73
68128;SHT30;54931;52.098;21.006;2023-12-22T01:54:47;4.64;73.81
68128;SHT30;54931;52.098;21.006;2023-12-22T01:57:15;4.63;73.51
68128;SHT30;54931;52.098;21.006;2023-12-22T01:59:46;4.71;73.21
68128;SHT30;54931;52.098;21.006;2023-12-22T02:02:15;4.72;73.47
68128;SHT30;54931;52.098;21.006;2023-12-22T02:04:43;4.68;73.40
68128;SHT30;54931;52.098;21.006;2023-12-22T02:07:12;4.64;73.63
68128;SHT30;54931;52.098;21.006;2023-12-22T02:09:40;4.56;73.75
68128;SHT30;54931;52.098;21.006;2023-12-22T02:12:08;4.51;73.78
68128;SHT30;54931;52.098;21.006;2023-12-22T02:14:36;4.49;73.89
68128;SHT30;54931;52.098;21.006;2023-12-22T02:19:52;4.44;74.25
68128;SHT30;54931;52.098;21.006;2023-12-22T02:22:23;4.48;73.99
68128;SHT30;54931;52.098;21.006;2023-12-22T02:24:50;4.53;74.13
68128;SHT30;54931;52.098;21.006;2023-12-22T02:27:25;4.62;74.08
68128;SHT30;54931;52.098;21.006;2023-12-22T02:33:16;4.77;74.20
68128;SHT30;54931;52.098;21.006;2023-12-22T02:35:46;4.81;74.18
68128;SHT30;54931;52.098;21.006;2023-12-22T02:38:17;4.88;74.00
68128;SHT30;54931;52.098;21.006;2023-12-22T02:40:46;4.89;73.99
68128;SHT30;54931;52.098;21.006;2023-12-22T02:43:15;4.92;73.77
68128;SHT30;54931;52.098;21.006;2023-12-22T02:45:42;4.96;73.61
68128;SHT30;54931;52.098;21.006;2023-12-22T02:48:10;4.97;73.33
68128;SHT30;54931;52.098;21.006;2023-12-22T02:50:38;4.99;72.85
68128;SHT30;54931;52.098;21.006;2023-12-22T02:53:06;5.02;72.82
68128;SHT30;54931;52.098;21.006;2023-12-22T02:55:33;5.01;73.00
68128;SHT30;54931;52.098;21.006;2023-12-22T02:58:01;4.99;72.61
68128;SHT30;54931;52.098;21.006;2023-12-22T03:00:29;4.97;72.35
68128;SHT30;54931;52.098;21.006;2023-12-22T03:02:57;4.99;72.19
68128;SHT30;54931;52.098;21.006;2023-12-22T03:05:24;4.98;72.00
68128;SHT30;54931;52.098;21.006;2023-12-22T03:07:52;5.02;71.31
68128;SHT30;54931;52.098;21.006;2023-12-22T03:10:20;5.06;71.43
68128;SHT30;54931;52.098;21.006;2023-12-22T03:12:47;5.07;71.27
68128;SHT30;54931;52.098;21.006;2023-12-22T03:15:15;5.08;71.66
68128;SHT30;54931;52.098;21.006;2023-12-22T03:17:42;5.09;71.36
68128;SHT30;54931;52.098;21.006;2023-12-22T03:20:10;5.08;71.63
68128;SHT30;54931;52.098;21.006;2023-12-22T03:22:38;5.04;72.42
68128;SHT30;54931;52.098;21.006;2023-12-22T03:25:05;4.96;73.37
68128;SHT30;54931;52.098;21.006;2023-12-22T03:27:34;4.84;74.73
68128;SHT30;54931;52.098;21.006;2023-12-22T03:30:02;4.69;75.79
68128;SHT30;54931;52.098;21.006;2023-12-22T03:32:31;4.56;75.85
68128;SHT30;54931;52.098;21.006;2023-12-22T03:34:58;4.51;75.52
68128;SHT30;54931;52.098;21.006;2023-12-22T03:37:26;4.48;75.36
68128;SHT30;54931;52.098;21.006;2023-12-22T03:39:54;4.47;75.39
68128;SHT30;54931;52.098;21.006;2023-12-22T03:42:21;4.45;75.90
68128;SHT30;54931;52.098;21.006;2023-12-22T03:44:49;4.39;75.83
68128;SHT30;54931;52.098;21.006;2023-12-22T03:47:17;4.37;75.20
68128;SHT30;54931;52.098;21.006;2023-12-22T03:49:44;4.35;75.29
68128;SHT30;54931;52.098;21.006;2023-12-22T03:52:12;4.33;74.51
68128;SHT30;54931;52.098;21.006;2023-12-22T03:54:39;4.34;74.56
68128;SHT30;54931;52.098;21.006;2023-12-22T03:57:07;4.32;74.45
68128;SHT30;54931;52.098;21.006;2023-12-22T03:59:35;4.31;74.73
68128;SHT30;54931;52.098;21.006;2023-12-22T04:02:03;4.28;75.12
68128;SHT30;54931;52.098;21.006;2023-12-22T04:04:31;4.27;75.24
68128;SHT30;54931;52.098;21.006;2023-12-22T04:06:59;4.27;75.03
68128;SHT30;54931;52.098;21.006;2023-12-22T04:09:26;4.27;75.27
68128;SHT30;54931;52.098;21.006;2023-12-22T04:11:54;4.26;74.56
68128;SHT30;54931;52.098;21.006;2023-12-22T04:14:41;4.31;74.31
68128;SHT30;54931;52.098;21.006;2023-12-22T04:17:11;4.31;74.38
68128;SHT30;54931;52.098;21.006;2023-12-22T04:19:46;4.32;74.29
68128;SHT30;54931;52.098;21.006;2023-12-22T04:22:35;4.31;74.08
68128;SHT30;54931;52.098;21.006;2023-12-22T04:25:03;4.32;74.71
68128;SHT30;54931;52.098;21.006;2023-12-22T04:27:33;4.30;74.55
68128;SHT30;54931;52.098;21.006;2023-12-22T04:30:02;4.28;74.60
68128;SHT30;54931;52.098;21.006;2023-12-22T04:32:30;4.27;74.60
68128;SHT30;54931;52.098;21.006;2023-12-22T04:34:58;4.26;74.79
68128;SHT30;54931;52.098;21.006;2023-12-22T04:37:26;4.26;75.23
68128;SHT30;54931;52.098;21.006;2023-12-22T04:39:53;4.22;75.76
68128;SHT30;54931;52.098;21.006;2023-12-22T04:42:21;4.18;75.91
68128;SHT30;54931;52.098;21.006;2023-12-22T04:44:49;4.14;76.37
68128;SHT30;54931;52.098;21.006;2023-12-22T04:47:16;4.10;76.41
68128;SHT30;54931;52.098;21.006;2023-12-22T04:49:44;4.08;76.63
68128;SHT30;54931;52.098;21.006;2023-12-22T04:52:12;4.04;77.35
68128;SHT30;54931;52.098;21.006;2023-12-22T04:54:40;4.00;77.90
68128;SHT30;54931;52.098;21.006;2023-12-22T04:57:08;3.92;78.55
68128;SHT30;54931;52.098;21.006;2023-12-22T04:59:36;3.83;79.35
68128;SHT30;54931;52.098;21.006;2023-12-22T05:02:03;3.72;79.88
68128;SHT30;54931;52.098;21.006;2023-12-22T05:04:31;3.62;80.17
68128;SHT30;54931;52.098;21.006;2023-12-22T05:06:59;3.55;80.15
68128;SHT30;54931;52.098;21.006;2023-12-22T05:09:28;3.51;80.51
68128;SHT30;54931;52.098;21.006;2023-12-22T05:11:56;3.47;79.92
68128;SHT30;54931;52.098;21.006;2023-12-22T05:14:23;3.50;79.62
68128;SHT30;54931;52.098;21.006;2023-12-22T05:16:51;3.51;79.19
68128;SHT30;54931;52.098;21.006;2023-12-22T05:19:22;3.51;79.12
68128;SHT30;54931;52.098;21.006;2023-12-22T05:21:50;3.51;79.16
68128;SHT30;54931;52.098;21.006;2023-12-22T05:24:19;3.48;79.34
68128;SHT30;54931;52.098;21.006;2023-12-22T05:26:47;3.46;79.32
68128;SHT30;54931;52.098;21.006;2023-12-22T05:29:15;3.43;79.56
68128;SHT30;54931;52.098;21.006;2023-12-22T05:31:42;3.39;79.75
68128;SHT30;54931;52.098;21.006;2023-12-22T05:34:11;3.37;79.46
68128;SHT30;54931;52.098;21.006;2023-12-22T05:36:38;3.37;79.27
68128;SHT30;54931;52.098;21.006;2023-12-22T05:39:07;3.36;79.46
68128;SHT30;54931;52.098;21.006;2023-12-22T05:41:38;3.35;79.39
68128;SHT30;54931;52.098;21.006;2023-12-22T05:44:05;3.35;79.49
68128;SHT30;54931;52.098;21.006;2023-12-22T05:46:37;3.32;79.56
68128;SHT30;54931;52.098;21.006;2023-12-22T05:49:08;3.33;79.67
68128;SHT30;54931;52.098;21.006;2023-12-22T05:51:36;3.32;79.76
68128;SHT30;54931;52.098;21.006;2023-12-22T05:54:08;3.31;79.91
68128;SHT30;54931;52.098;21.006;2023-12-22T05:56:40;3.31;79.58
68128;SHT30;54931;52.098;21.006;2023-12-22T05:59:07;3.34;79.20
68128;SHT30;54931;52.098;21.006;2023-12-22T06:01:35;3.32;79.29
68128;SHT30;54931;52.098;21.006;2023-12-22T06:04:03;3.33;79.17
68128;SHT30;54931;52.098;21.006;2023-12-22T06:06:32;3.33;78.89
68128;SHT30;54931;52.098;21.006;2023-12-22T06:09:00;3.33;78.96
68128;SHT30;54931;52.098;21.006;2023-12-22T06:11:28;3.32;78.35
68128;SHT30;54931;52.098;21.006;2023-12-22T06:13:56;3.34;78.07
68128;SHT30;54931;52.098;21.006;2023-12-22T06:16:24;3.33;77.82
68128;SHT30;54931;52.098;21.006;2023-12-22T06:18:51;3.33;77.27
68128;SHT30;54931;52.098;21.006;2023-12-22T06:21:19;3.35;76.80
68128;SHT30;54931;52.098;21.006;2023-12-22T06:23:47;3.36;75.83
68128;SHT30;54931;52.098;21.006;2023-12-22T06:26:15;3.40;75.46
68128;SHT30;54931;52.098;21.006;2023-12-22T06:28:43;3.43;75.63
68128;SHT30;54931;52.098;21.006;2023-12-22T06:31:17;3.46;74.20
68128;SHT30;54931;52.098;21.006;2023-12-22T06:33:48;3.53;73.70
68128;SHT30;54931;52.098;21.006;2023-12-22T06:36:21;3.56;72.97
68128;SHT30;54931;52.098;21.006;2023-12-22T06:38:52;3.63;71.93
68128;SHT30;54931;52.098;21.006;2023-12-22T06:41:22;3.69;69.58
68128;SHT30;54931;52.098;21.006;2023-12-22T06:43:58;3.81;67.75
68128;SHT30;54931;52.098;21.006;2023-12-22T06:46:30;3.87;67.03
68128;SHT30;54931;52.098;21.006;2023-12-22T06:48:59;3.92;65.70
68128;SHT30;54931;52.098;21.006;2023-12-22T06:51:29;3.97;64.82
68128;SHT30;54931;52.098;21.006;2023-12-22T06:53:58;4.00;63.49
68128;SHT30;54931;52.098;21.006;2023-12-22T06:56:29;4.01;62.28
68128;SHT30;54931;52.098;21.006;2023-12-22T06:59:00;4.04;62.13
68128;SHT30;54931;52.098;21.006;2023-12-22T07:01:30;4.05;62.15
68128;SHT30;54931;52.098;21.006;2023-12-22T07:03:59;4.06;63.05
68128;SHT30;54931;52.098;21.006;2023-12-22T07:06:30;4.08;63.51
68128;SHT30;54931;52.098;21.006;2023-12-22T07:11:39;4.01;64.52
68128;SHT30;54931;52.098;21.006;2023-12-22T07:14:08;3.95;64.20
68128;SHT30;54931;52.098;21.006;2023-12-22T07:16:36;3.92;64.01
68128;SHT30;54931;52.098;21.006;2023-12-22T07:19:05;3.91;63.50
68128;SHT30;54931;52.098;21.006;2023-12-22T07:21:33;3.87;63.74
68128;SHT30;54931;52.098;21.006;2023-12-22T07:24:00;3.83;63.69
68128;SHT30;54931;52.098;21.006;2023-12-22T07:26:28;3.79;63.74
68128;SHT30;54931;52.098;21.006;2023-12-22T07:28:56;3.80;63.63
68128;SHT30;54931;52.098;21.006;2023-12-22T07:31:23;3.80;64.23
68128;SHT30;54931;52.098;21.006;2023-12-22T07:33:52;3.78;63.90
68128;SHT30;54931;52.098;21.006;2023-12-22T07:36:19;3.81;64.39
68128;SHT30;54931;52.098;21.006;2023-12-22T07:38:48;3.82;63.99
68128;SHT30;54931;52.098;21.006;2023-12-22T07:41:16;3.87;63.66
68128;SHT30;54931;52.098;21.006;2023-12-22T07:43:43;3.93;62.31
68128;SHT30;54931;52.098;21.006;2023-12-22T07:46:18;4.01;62.02
68128;SHT30;54931;52.098;21.006;2023-12-22T07:48:46;4.08;60.24
68128;SHT30;54931;52.098;21.006;2023-12-22T07:51:14;4.23;59.94
68128;SHT30;54931;52.098;21.006;2023-12-22T07:53:42;4.33;59.11
68128;SHT30;54931;52.098;21.006;2023-12-22T07:56:10;4.37;58.07
68128;SHT30;54931;52.098;21.006;2023-12-22T07:58:38;4.26;58.28
68128;SHT30;54931;52.098;21.006;2023-12-22T08:01:06;4.14;57.94
68128;SHT30;54931;52.098;21.006;2023-12-22T08:03:34;4.07;57.83
68128;SHT30;54931;52.098;21.006;2023-12-22T08:06:02;4.19;57.53
68128;SHT30;54931;52.098;21.006;2023-12-22T08:08:30;4.34;57.03
68128;SHT30;54931;52.098;21.006;2023-12-22T08:11:00;4.51;56.92
68128;SHT30;54931;52.098;21.006;2023-12-22T08:13:28;4.74;56.82
68128;SHT30;54931;52.098;21.006;2023-12-22T08:15:55;4.88;56.48
68128;SHT30;54931;52.098;21.006;2023-12-22T08:18:23;4.98;56.39
68128;SHT30;54931;52.098;21.006;2023-12-22T08:20:51;4.96;56.92
68128;SHT30;54931;52.098;21.006;2023-12-22T08:23:21;4.99;57.68
68128;SHT30;54931;52.098;21.006;2023-12-22T08:25:49;5.04;57.88
68128;SHT30;54931;52.098;21.006;2023-12-22T08:28:16;5.06;58.31
68128;SHT30;54931;52.098;21.006;2023-12-22T08:30:44;5.31;59.15
68128;SHT30;54931;52.098;21.006;2023-12-22T08:33:11;5.38;59.22
68128;SHT30;54931;52.098;21.006;2023-12-22T08:35:40;5.37;59.19
68128;SHT30;54931;52.098;21.006;2023-12-22T08:38:08;5.38;59.86
68128;SHT30;54931;52.098;21.006;2023-12-22T08:40:36;5.57;60.23
68128;SHT30;54931;52.098;21.006;2023-12-22T08:43:04;5.64;59.82
68128;SHT30;54931;52.098;21.006;2023-12-22T08:45:33;5.84;60.30
68128;SHT30;54931;52.098;21.006;2023-12-22T08:48:01;6.00;59.66
68128;SHT30;54931;52.098;21.006;2023-12-22T08:50:29;6.05;59.20
68128;SHT30;54931;52.098;21.006;2023-12-22T08:52:57;6.01;59.63
68128;SHT30;54931;52.098;21.006;2023-12-22T08:55:25;6.05;59.58
68128;SHT30;54931;52.098;21.006;2023-12-22T08:57:53;6.22;59.79
68128;SHT30;54931;52.098;21.006;2023-12-22T09:00:21;6.36;59.27
68128;SHT30;54931;52.098;21.006;2023-12-22T09:02:48;6.47;59.33
68128;SHT30;54931;52.098;21.006;2023-12-22T09:05:16;6.47;58.69
68128;SHT30;54931;52.098;21.006;2023-12-22T09:07:45;6.48;58.52
68128;SHT30;54931;52.098;21.006;2023-12-22T09:10:13;6.53;58.66
68128;SHT30;54931;52.098;21.006;2023-12-22T09:12:41;6.66;58.84
68128;SHT30;54931;52.098;21.006;2023-12-22T09:15:09;6.72;57.74
68128;SHT30;54931;52.098;21.006;2023-12-22T09:17:37;6.70;57.75
68128;SHT30;54931;52.098;21.006;2023-12-22T09:20:05;6.49;56.84
68128;SHT30;54931;52.098;21.006;2023-12-22T09:22:34;6.55;57.22
68128;SHT30;54931;52.098;21.006;2023-12-22T09:25:02;6.50;56.34
68128;SHT30;54931;52.098;21.006;2023-12-22T09:27:30;6.58;56.80
68128;SHT30;54931;52.098;21.006;2023-12-22T09:29:58;6.67;56.91
68128;SHT30;54931;52.098;21.006;2023-12-22T09:32:26;6.73;55.70
68128;SHT30;54931;52.098;21.006;2023-12-22T09:34:54;6.74;55.30
68128;SHT30;54931;52.098;21.006;2023-12-22T09:37:24;6.77;55.40
68128;SHT30;54931;52.098;21.006;2023-12-22T09:39:52;6.68;55.47
68128;SHT30;54931;52.098;21.006;2023-12-22T09:42:21;6.56;55.93
68128;SHT30;54931;52.098;21.006;2023-12-22T09:44:49;6.44;56.19
68128;SHT30;54931;52.098;21.006;2023-12-22T09:47:21;6.60;56.36
68128;SHT30;54931;52.098;21.006;2023-12-22T09:49:51;6.72;56.28
68128;SHT30;54931;52.098;21.006;2023-12-22T09:52:20;6.64;55.54
68128;SHT30;54931;52.098;21.006;2023-12-22T09:54:49;6.71;55.79
68128;SHT30;54931;52.098;21.006;2023-12-22T09:57:17;6.96;56.08
68128;SHT30;54931;52.098;21.006;2023-12-22T09:59:46;6.93;54.79
68128;SHT30;54931;52.098;21.006;2023-12-22T10:02:17;6.73;55.71
68128;SHT30;54931;52.098;21.006;2023-12-22T10:04:45;6.52;56.03
68128;SHT30;54931;52.098;21.006;2023-12-22T10:07:13;6.43;57.02
68128;SHT30;54931;52.098;21.006;2023-12-22T10:09:42;6.29;56.85
68128;SHT30;54931;52.098;21.006;2023-12-22T10:12:14;6.06;57.41
68128;SHT30;54931;52.098;21.006;2023-12-22T10:14:46;5.86;58.27
68128;SHT30;54931;52.098;21.006;2023-12-22T10:17:15;5.65;60.03
68128;SHT30;54931;52.098;21.006;2023-12-22T10:19:43;5.46;60.49
68128;SHT30;54931;52.098;21.006;2023-12-22T10:22:11;5.21;62.20
68128;SHT30;54931;52.098;21.006;2023-12-22T10:24:42;4.29;70.54
68128;SHT30;54931;52.098;21.006;2023-12-22T10:27:15;3.25;73.78
68128;SHT30;54931;52.098;21.006;2023-12-22T10:29:49;2.26;77.44
68128;SHT30;54931;52.098;21.006;2023-12-22T10:32:22;1.74;79.47
68128;SHT30;54931;52.098;21.006;2023-12-22T10:34:51;1.32;81.68
68128;SHT30;54931;52.098;21.006;2023-12-22T10:37:20;1.00;83.59
68128;SHT30;54931;52.098;21.006;2023-12-22T10:39:53;0.83;84.62
68128;SHT30;54931;52.098;21.006;2023-12-22T10:42:22;0.65;85.85
68128;SHT30;54931;52.098;21.006;2023-12-22T10:44:54;0.58;86.45
68128;SHT30;54931;52.098;21.006;2023-12-22T10:47:24;0.52;86.55
68128;SHT30;54931;52.098;21.006;2023-12-22T10:49:53;0.49;86.84
68128;SHT30;54931;52.098;21.006;2023-12-22T10:52:23;0.49;87.11
68128;SHT30;54931;52.098;21.006;2023-12-22T10:54:54;0.51;87.07
68128;SHT30;54931;52.098;21.006;2023-12-22T10:57:27;0.57;87.09
68128;SHT30;54931;52.098;21.006;2023-12-22T10:59:57;0.62;86.90
68128;SHT30;54931;52.098;21.006;2023-12-22T11:02:34;0.67;86.89
68128;SHT30;54931;52.098;21.006;2023-12-22T11:05:05;0.74;86.93
68128;SHT30;54931;52.098;21.006;2023-12-22T11:07:39;0.80;86.80
68128;SHT30;54931;52.098;21.006;2023-12-22T11:10:17;0.85;86.61
68128;SHT30;54931;52.098;21.006;2023-12-22T11:12:49;0.86;86.30
68128;SHT30;54931;52.098;21.006;2023-12-22T11:15:18;0.86;86.06
68128;SHT30;54931;52.098;21.006;2023-12-22T11:17:48;0.87;85.91
68128;SHT30;54931;52.098;21.006;2023-12-22T11:20:18;0.91;85.75
68128;SHT30;54931;52.098;21.006;2023-12-22T11:22:49;0.92;85.61
68128;SHT30;54931;52.098;21.006;2023-12-22T11:25:19;0.93;85.42
68128;SHT30;54931;52.098;21.006;2023-12-22T11:27:49;0.93;85.19
68128;SHT30;54931;52.098;21.006;2023-12-22T11:30:22;0.93;85.10
68128;SHT30;54931;52.098;21.006;2023-12-22T11:32:53;0.92;84.98
68128;SHT30;54931;52.098;21.006;2023-12-22T11:35:23;0.87;84.87
68128;SHT30;54931;52.098;21.006;2023-12-22T11:37:51;0.84;84.81
68128;SHT30;54931;52.098;21.006;2023-12-22T11:40:21;0.86;84.93
68128;SHT30;54931;52.098;21.006;2023-12-22T11:42:49;0.99;85.00
68128;SHT30;54931;52.098;21.006;2023-12-22T11:45:19;1.14;84.88
68128;SHT30;54931;52.098;21.006;2023-12-22T11:47:47;1.26;84.59
68128;SHT30;54931;52.098;21.006;2023-12-22T11:50:27;1.34;84.17
68128;SHT30;54931;52.098;21.006;2023-12-22T11:52:59;1.47;84.24
68128;SHT30;54931;52.098;21.006;2023-12-22T11:55:59;1.56;83.79
68128;SHT30;54931;52.098;21.006;2023-12-22T11:58:40;1.63;83.49
68128;SHT30;54931;52.098;21.006;2023-12-22T12:01:26;1.73;83.34
68128;SHT30;54931;52.098;21.006;2023-12-22T12:03:59;1.79;83.13
68128;SHT30;54931;52.098;21.006;2023-12-22T12:06:32;1.84;83.06
68128;SHT30;54931;52.098;21.006;2023-12-22T12:09:05;1.85;82.85
68128;SHT30;54931;52.098;21.006;2023-12-22T12:14:22;1.85;82.80
68128;SHT30;54931;52.098;21.006;2023-12-22T12:17:02;1.78;82.93
68128;SHT30;54931;52.098;21.006;2023-12-22T12:19:40;1.75;83.25
68128;SHT30;54931;52.098;21.006;2023-12-22T12:22:12;1.80;83.25
68128;SHT30;54931;52.098;21.006;2023-12-22T12:24:41;1.89;83.24
68128;SHT30;54931;52.098;21.006;2023-12-22T12:27:10;1.91;83.15
68128;SHT30;54931;52.098;21.006;2023-12-22T12:29:39;1.91;83.06
68128;SHT30;54931;52.098;21.006;2023-12-22T12:32:07;1.88;82.95
68128;SHT30;54931;52.098;21.006;2023-12-22T12:34:36;1.86;82.96
68128;SHT30;54931;52.098;21.006;2023-12-22T12:37:05;1.88;82.75
68128;SHT30;54931;52.098;21.006;2023-12-22T12:39:34;1.90;82.83
68128;SHT30;54931;52.098;21.006;2023-12-22T12:42:02;1.93;82.87
68128;SHT30;54931;52.098;21.006;2023-12-22T12:44:35;1.96;82.63
68128;SHT30;54931;52.098;21.006;2023-12-22T12:47:14;1.99;82.49
68128;SHT30;54931;52.098;21.006;2023-12-22T12:49:42;2.01;82.38
68128;SHT30;54931;52.098;21.006;2023-12-22T12:52:13;2.02;82.57
68128;SHT30;54931;52.098;21.006;2023-12-22T12:54:42;2.01;82.77
68128;SHT30;54931;52.098;21.006;2023-12-22T12:57:14;1.98;82.96
68128;SHT30;54931;52.098;21.006;2023-12-22T12:59:46;1.96;83.03
68128;SHT30;54931;52.098;21.006;2023-12-22T13:02:16;1.90;83.31
68128;SHT30;54931;52.098;21.006;2023-12-22T13:04:45;1.85;83.68
68128;SHT30;54931;52.098;21.006;2023-12-22T13:07:13;1.81;83.87
68128;SHT30;54931;52.098;21.006;2023-12-22T13:09:41;1.76;84.20
68128;SHT30;54931;52.098;21.006;2023-12-22T13:12:11;1.71;84.52
68128;SHT30;54931;52.098;21.006;2023-12-22T13:14:39;1.65;84.93
68128;SHT30;54931;52.098;21.006;2023-12-22T13:17:07;1.62;85.09
68128;SHT30;54931;52.098;21.006;2023-12-22T13:19:37;1.57;85.47
68128;SHT30;54931;52.098;21.006;2023-12-22T13:22:06;1.55;85.45
68128;SHT30;54931;52.098;21.006;2023-12-22T13:24:35;1.54;85.74
68128;SHT30;54931;52.098;21.006;2023-12-22T13:27:03;1.54;86.03
68128;SHT30;54931;52.098;21.006;2023-12-22T13:29:43;1.55;86.02
68128;SHT30;54931;52.098;21.006;2023-12-22T13:32:15;1.56;86.11
68128;SHT30;54931;52.098;21.006;2023-12-22T13:34:51;1.57;86.28
68128;SHT30;54931;52.098;21.006;2023-12-22T13:37:24;1.59;86.20
68128;SHT30;54931;52.098;21.006;2023-12-22T13:39:54;1.59;86.13
68128;SHT30;54931;52.098;21.006;2023-12-22T13:42:22;1.60;86.02
68128;SHT30;54931;52.098;21.006;2023-12-22T13:44:51;1.59;86.10
68128;SHT30;54931;52.098;21.006;2023-12-22T13:47:19;1.59;86.23
68128;SHT30;54931;52.098;21.006;2023-12-22T13:49:47;1.57;86.25
68128;SHT30;54931;52.098;21.006;2023-12-22T13:52:25;1.58;86.19
68128;SHT30;54931;52.098;21.006;2023-12-22T13:55:01;1.56;86.42
68128;SHT30;54931;52.098;21.006;2023-12-22T13:57:37;1.56;86.41
68128;SHT30;54931;52.098;21.006;2023-12-22T14:02:46;1.55;86.53
68128;SHT30;54931;52.098;21.006;2023-12-22T14:05:19;1.54;86.63
68128;SHT30;54931;52.098;21.006;2023-12-22T14:07:47;1.53;86.57
68128;SHT30;54931;52.098;21.006;2023-12-22T14:10:15;1.52;86.70
68128;SHT30;54931;52.098;21.006;2023-12-22T14:12:44;1.51;86.72
68128;SHT30;54931;52.098;21.006;2023-12-22T14:15:11;1.49;86.81
68128;SHT30;54931;52.098;21.006;2023-12-22T14:17:40;1.47;86.84
68128;SHT30;54931;52.098;21.006;2023-12-22T14:20:09;1.46;87.03
68128;SHT30;54931;52.098;21.006;2023-12-22T14:22:38;1.45;87.08
68128;SHT30;54931;52.098;21.006;2023-12-22T14:25:06;1.45;87.16
68128;SHT30;54931;52.098;21.006;2023-12-22T14:27:34;1.44;87.03
68128;SHT30;54931;52.098;21.006;2023-12-22T14:30:02;1.42;87.33
68128;SHT30;54931;52.098;21.006;2023-12-22T14:32:31;1.40;87.32
68128;SHT30;54931;52.098;21.006;2023-12-22T14:34:59;1.39;87.37
68128;SHT30;54931;52.098;21.006;2023-12-22T14:37:28;1.38;87.42
68128;SHT30;54931;52.098;21.006;2023-12-22T14:39:56;1.36;87.48
68128;SHT30;54931;52.098;21.006;2023-12-22T14:42:23;1.35;87.49
68128;SHT30;54931;52.098;21.006;2023-12-22T14:44:51;1.30;87.56
68128;SHT30;54931;52.098;21.006;2023-12-22T14:47:18;1.26;87.63
68128;SHT30;54931;52.098;21.006;2023-12-22T14:49:46;1.22;87.81
68128;SHT30;54931;52.098;21.006;2023-12-22T14:52:13;1.20;87.81
68128;SHT30;54931;52.098;21.006;2023-12-22T14:54:41;1.17;88.09
68128;SHT30;54931;52.098;21.006;2023-12-22T14:57:08;1.15;88.28
68128;SHT30;54931;52.098;21.006;2023-12-22T14:59:36;1.14;88.16
68128;SHT30;54931;52.098;21.006;2023-12-22T15:02:04;1.13;88.36
68128;SHT30;54931;52.098;21.006;2023-12-22T15:04:32;1.11;88.41
68128;SHT30;54931;52.098;21.006;2023-12-22T15:07:00;1.13;88.66
68128;SHT30;54931;52.098;21.006;2023-12-22T15:09:28;1.13;88.66
68128;SHT30;54931;52.098;21.006;2023-12-22T15:11:57;1.16;88.73
68128;SHT30;54931;52.098;21.006;2023-12-22T15:14:25;1.17;88.74
68128;SHT30;54931;52.098;21.006;2023-12-22T15:16:53;1.22;88.59
68128;SHT30;54931;52.098;21.006;2023-12-22T15:19:20;1.25;88.51
68128;SHT30;54931;52.098;21.006;2023-12-22T15:21:49;1.27;88.41
68128;SHT30;54931;52.098;21.006;2023-12-22T15:24:19;1.29;88.36
68128;SHT30;54931;52.098;21.006;2023-12-22T15:26:47;1.32;88.30
68128;SHT30;54931;52.098;21.006;2023-12-22T15:29:15;1.35;88.15
68128;SHT30;54931;52.098;21.006;2023-12-22T15:31:46;1.35;88.08
68128;SHT30;54931;52.098;21.006;2023-12-22T15:34:16;1.35;88.05
68128;SHT30;54931;52.098;21.006;2023-12-22T15:36:44;1.34;88.11
68128;SHT30;54931;52.098;21.006;2023-12-22T15:39:13;1.32;88.17
68128;SHT30;54931;52.098;21.006;2023-12-22T15:41:41;1.29;88.26
68128;SHT30;54931;52.098;21.006;2023-12-22T15:44:09;1.29;88.40
68128;SHT30;54931;52.098;21.006;2023-12-22T15:46:36;1.28;88.44
68128;SHT30;54931;52.098;21.006;2023-12-22T15:49:04;1.26;88.58
68128;SHT30;54931;52.098;21.006;2023-12-22T15:51:32;1.25;88.67
68128;SHT30;54931;52.098;21.006;2023-12-22T15:54:02;1.25;88.80
68128;SHT30;54931;52.098;21.006;2023-12-22T15:56:30;1.22;88.82